Time;durP1;ratioP1;P1;durP2;ratioP2;P2;SDS_P1;SDS_P2;PMS_P1;PMS_P2;Temp;Humidity;BMP_temperature;BMP_pressure;BME280_temperature;BME280_humidity;BME280_pressure;Samples;Min_cycle;Max_cycle;Signal;HPM_P1;HPM_P2
2022/04/04 00:01:04;;;;;;;16.73;7.80;;;;;;;0.30;63.99;98854.91;2000802;89;21010;-84
2022/04/04 00:04:05;;;;;;;17.37;8.80;;;;;;;0.26;64.17;98855.56;2000566;89;21504;-80
2022/04/04 00:07:05;;;;;;;15.73;8.87;;;;;;;0.26;64.25;98851.30;2000452;89;21356;-82
2022/04/04 00:10:06;;;;;;;19.93;8.20;;;;;;;0.29;64.45;98851.86;2001178;89;20994;-84
2022/04/04 00:13:11;;;;;;;16.65;8.60;;;;;;;0.28;64.45;98851.38;1980208;88;20989;-83
2022/04/04 00:16:12;;;;;;;19.53;8.67;;;;;;;0.26;64.76;98852.98;2000838;87;21009;-84
2022/04/04 00:19:14;;;;;;;14.43;8.40;;;;;;;0.23;64.86;98854.11;2001232;89;20969;-84
2022/04/04 00:22:15;;;;;;;14.97;8.90;;;;;;;0.22;64.92;98858.36;2001191;89;21020;-85
2022/04/04 00:25:15;;;;;;;16.03;8.97;;;;;;;0.23;64.95;98854.99;2001519;89;20977;-85
2022/04/04 00:28:19;;;;;;;15.03;8.37;;;;;;;0.25;64.94;98857.24;2000875;89;21357;-85
2022/04/04 00:31:21;;;;;;;18.10;8.90;;;;;;;0.27;65.09;98858.61;1979688;89;21013;-84
2022/04/04 00:34:22;;;;;;;14.87;8.83;;;;;;;0.20;65.07;98852.27;2000645;89;20969;-85
2022/04/04 00:37:22;;;;;;;22.27;9.07;;;;;;;0.20;65.33;98851.38;2081005;85;20963;-86
2022/04/04 00:40:23;;;;;;;16.27;8.70;;;;;;;0.15;65.47;98843.45;2096831;83;21409;-85
2022/04/04 00:43:24;;;;;;;16.70;9.63;;;;;;;0.13;65.50;98843.77;2104076;85;21290;-85
2022/04/04 00:46:25;;;;;;;17.80;9.47;;;;;;;0.08;65.63;98844.33;2104219;85;21023;-85
2022/04/04 00:49:26;;;;;;;18.90;9.53;;;;;;;0.01;65.63;98835.83;2104959;84;21042;-83
2022/04/04 00:52:26;;;;;;;15.80;9.10;;;;;;;-0.05;65.67;98843.64;2120071;84;21099;-85
2022/04/04 00:55:27;;;;;;;18.57;9.87;;;;;;;-0.09;66.10;98843.41;2108561;84;20974;-83
2022/04/04 00:58:30;;;;;;;17.47;10.10;;;;;;;-0.13;65.81;98845.32;2094941;84;21366;-84
2022/04/04 01:01:30;;;;;;;18.83;9.87;;;;;;;-0.13;66.19;98841.47;2092484;85;20967;-85
2022/04/04 01:04:31;;;;;;;18.27;10.13;;;;;;;-0.13;66.13;98841.07;2092802;85;20971;-85
2022/04/04 01:07:31;;;;;;;16.77;9.80;;;;;;;-0.10;66.02;98842.52;2091892;84;21421;-84
2022/04/04 01:10:32;;;;;;;20.60;10.77;;;;;;;-0.12;66.09;98835.14;2092095;84;21322;-86
2022/04/04 01:13:32;;;;;;;18.47;10.43;;;;;;;-0.15;66.23;98834.09;2097011;84;20936;-85
2022/04/04 01:16:33;;;;;;;20.37;10.40;;;;;;;-0.14;66.29;98829.05;2119639;84;21013;-86
2022/04/04 01:19:33;;;;;;;22.43;11.23;;;;;;;-0.14;66.45;98823.03;2120530;84;20979;-83
2022/04/04 01:22:34;;;;;;;16.67;10.27;;;;;;;-0.16;66.43;98829.36;2094600;84;20943;-85
2022/04/04 01:25:37;;;;;;;21.50;10.50;;;;;;;-0.16;66.62;98821.67;2100428;84;20943;-84
2022/04/04 01:28:37;;;;;;;24.10;11.73;;;;;;;-0.17;66.73;98817.34;2091407;84;21042;-83
2022/04/04 01:31:37;;;;;;;22.53;12.17;;;;;;;-0.17;66.75;98812.61;2108736;84;20919;-84
2022/04/04 01:34:38;;;;;;;24.63;12.73;;;;;;;-0.11;66.91;98812.53;2119698;84;20931;-85
2022/04/04 01:37:39;;;;;;;27.03;13.27;;;;;;;-0.11;67.01;98807.80;2103711;84;20971;-84
2022/04/04 01:40:39;;;;;;;24.37;13.90;;;;;;;-0.15;66.86;98800.34;2117253;83;21006;-84
2022/04/04 01:43:40;;;;;;;30.07;14.83;;;;;;;-0.18;67.05;98800.18;2118298;84;20954;-85
2022/04/04 01:46:40;;;;;;;24.57;14.10;;;;;;;-0.22;67.22;98795.69;2125793;84;20946;-85
2022/04/04 01:49:41;;;;;;;28.20;14.73;;;;;;;-0.26;67.28;98792.48;2118249;84;20954;-85
2022/04/04 01:53:25;;;;;;;34.47;15.43;;;;;;;-0.27;67.44;98786.87;2118186;84;20983;-83
2022/04/04 01:55:44;;;;;;;30.20;14.27;;;;;;;-0.30;67.56;98785.83;2115314;84;21415;-84
2022/04/04 01:58:45;;;;;;;28.57;13.73;;;;;;;-0.32;67.57;98785.34;2118346;84;20974;-85
2022/04/04 02:01:45;;;;;;;27.93;14.07;;;;;;;-0.31;67.77;98786.22;2112860;84;21002;-85
2022/04/04 02:04:45;;;;;;;24.77;14.33;;;;;;;-0.29;67.73;98782.45;2109214;84;20986;-85
2022/04/04 02:07:46;;;;;;;27.63;15.63;;;;;;;-0.28;67.84;98772.28;2112957;84;21449;-86
2022/04/04 02:10:46;;;;;;;31.97;15.60;;;;;;;-0.31;67.78;98773.40;2118416;84;20927;-86
2022/04/04 02:13:47;;;;;;;33.20;15.93;;;;;;;-0.29;67.97;98774.36;2118460;84;20919;-85
2022/04/04 02:16:48;;;;;;;30.53;15.77;;;;;;;-0.26;68.09;98767.23;2109378;84;20986;-84
2022/04/04 02:19:49;;;;;;;43.47;16.17;;;;;;;-0.27;68.16;98765.47;2118594;84;21418;-82
2022/04/04 02:22:50;;;;;;;27.43;14.57;;;;;;;-0.31;68.40;98765.70;2126089;84;20920;-85
2022/04/04 02:25:50;;;;;;;26.30;14.87;;;;;;;-0.30;68.38;98761.45;2118524;84;21373;-87
2022/04/04 02:28:51;;;;;;;28.87;14.13;;;;;;;-0.33;68.50;98761.78;2125852;84;20986;-84
2022/04/04 02:31:51;;;;;;;25.37;14.57;;;;;;;-0.35;68.52;98761.22;2118611;84;20947;-84
2022/04/04 02:34:52;;;;;;;28.97;13.73;;;;;;;-0.37;68.58;98764.09;2113930;84;21300;-80
2022/04/04 02:37:53;;;;;;;24.57;13.63;;;;;;;-0.35;68.65;98762.09;2124556;84;21359;-85
2022/04/04 02:40:53;;;;;;;29.93;14.10;;;;;;;-0.37;68.58;98757.28;2125409;83;21469;-84
2022/04/04 02:43:54;;;;;;;28.07;14.67;;;;;;;-0.37;68.64;98757.69;2119268;84;21393;-84
2022/04/04 02:46:54;;;;;;;27.90;13.60;;;;;;;-0.36;68.84;98753.92;2119662;84;20974;-84
2022/04/04 02:49:55;;;;;;;30.67;14.43;;;;;;;-0.36;68.71;98756.89;2120589;84;20978;-86
2022/04/04 02:52:55;;;;;;;25.20;13.50;;;;;;;-0.33;68.85;98751.92;2120681;83;20962;-86
2022/04/04 02:59:15;;;;;;;23.57;14.17;;;;;;;-0.30;68.61;98745.67;2120051;84;21297;-86
2022/04/04 03:02:16;;;;;;;29.70;14.43;;;;;;;-0.27;68.52;98750.08;2118996;84;20971;-84
2022/04/04 03:05:16;;;;;;;28.63;14.10;;;;;;;-0.25;68.64;98748.07;2119747;84;21354;-80
2022/04/04 03:08:17;;;;;;;20.27;12.73;;;;;;;-0.25;68.50;98753.20;2120598;83;21003;-85
2022/04/04 03:11:18;;;;;;;24.63;12.03;;;;;;;-0.24;68.61;98754.97;2120180;84;20963;-85
2022/04/04 03:14:20;;;;;;;26.20;12.60;;;;;;;-0.26;68.65;98745.03;2096388;84;21007;-86
2022/04/04 03:17:20;;;;;;;22.73;12.30;;;;;;;-0.26;68.75;98747.98;2119898;84;20986;-83
2022/04/04 03:20:21;;;;;;;23.80;13.57;;;;;;;-0.27;68.67;98750.95;2118957;84;20946;-85
2022/04/04 03:23:22;;;;;;;24.37;12.77;;;;;;;-0.26;68.61;98752.72;2119168;84;20978;-85
2022/04/04 03:26:23;;;;;;;24.80;12.10;;;;;;;-0.30;68.55;98745.67;2119911;84;20951;-86
2022/04/04 03:29:23;;;;;;;21.43;11.60;;;;;;;-0.31;68.52;98751.59;2118606;84;20975;-86
2022/04/04 03:32:24;;;;;;;22.73;12.20;;;;;;;-0.36;68.52;98750.47;2119696;84;20966;-86
2022/04/04 03:35:24;;;;;;;20.73;12.67;;;;;;;-0.45;68.44;98749.59;2118148;84;20989;-86
2022/04/04 03:38:25;;;;;;;26.53;12.60;;;;;;;-0.54;68.35;98744.37;2118523;83;21041;-84
2022/04/04 03:41:26;;;;;;;20.07;11.77;;;;;;;-0.65;68.58;98743.40;2120948;84;21149;-81
2022/04/04 03:44:26;;;;;;;25.77;12.03;;;;;;;-0.74;68.61;98743.30;2125274;84;21035;-79
2022/04/04 03:47:27;;;;;;;23.97;12.20;;;;;;;-0.83;68.77;98743.69;2125046;84;20950;-81
2022/04/04 03:50:27;;;;;;;19.13;11.70;;;;;;;-0.90;68.98;98740.67;2117846;84;21002;-84
2022/04/04 03:53:28;;;;;;;24.00;12.70;;;;;;;-0.98;68.94;98739.86;2110049;84;20970;-84
2022/04/04 03:59:31;;;;;;;26.17;12.73;;;;;;;-1.10;69.20;98744.70;2097416;84;21398;-84
2022/04/04 04:02:31;;;;;;;25.03;13.13;;;;;;;-1.17;69.32;98740.03;2124083;84;21041;-84
2022/04/04 04:05:32;;;;;;;23.17;12.57;;;;;;;-1.24;69.45;98740.48;2124295;84;20939;-84
2022/04/04 04:08:32;;;;;;;31.03;13.17;;;;;;;-1.30;69.71;98736.78;2109760;84;21062;-85
2022/04/04 04:11:34;;;;;;;23.83;12.57;;;;;;;-1.34;69.67;98739.97;2104848;84;20990;-81
2022/04/04 04:14:35;;;;;;;22.13;12.13;;;;;;;-1.35;69.71;98741.16;2110784;84;21463;-82
2022/04/04 04:17:35;;;;;;;23.23;11.77;;;;;;;-1.34;69.70;98737.41;2117057;84;21038;-82
2022/04/04 04:20:36;;;;;;;29.43;13.90;;;;;;;-1.34;69.69;98735.25;2116694;84;20978;-84
2022/04/04 04:23:37;;;;;;;35.20;15.83;;;;;;;-1.33;69.75;98739.17;2117513;84;21369;-85
2022/04/04 04:26:38;;;;;;;29.77;16.13;;;;;;;-1.30;69.77;98732.95;2123470;84;21058;-85
2022/04/04 04:29:40;;;;;;;35.97;15.47;;;;;;;-1.19;69.53;98736.50;2099511;84;21045;-84
2022/04/04 04:32:41;;;;;;;25.20;14.30;;;;;;;-1.08;69.32;98725.17;2123270;84;20986;-84
2022/04/04 04:35:41;;;;;;;29.53;14.30;;;;;;;-0.96;69.22;98728.01;2118056;84;20999;-83
2022/04/04 04:38:42;;;;;;;27.63;14.13;;;;;;;-0.91;69.05;98729.54;2124491;84;21060;-83
2022/04/04 04:41:45;;;;;;;27.93;14.67;;;;;;;-0.82;68.90;98725.34;2121108;84;21468;-83
2022/04/04 04:44:45;;;;;;;28.33;15.13;;;;;;;-0.80;68.85;98719.50;2116790;83;21033;-83
2022/04/04 04:47:45;;;;;;;25.93;15.17;;;;;;;-0.73;68.68;98721.59;2117268;83;20978;-83
2022/04/04 04:50:47;;;;;;;28.33;14.80;;;;;;;-0.61;68.42;98720.09;2114797;84;21401;-83
2022/04/04 04:53:48;;;;;;;28.20;15.73;;;;;;;-0.48;68.17;98725.06;2107810;83;21566;-82
2022/04/04 04:56:48;;;;;;;30.27;18.33;;;;;;;-0.34;67.95;98727.07;2108357;83;20994;-80
2022/04/04 04:59:49;;;;;;;33.90;17.80;;;;;;;-0.19;67.72;98717.61;2116311;83;20931;-80
2022/04/04 05:03:24;;;;;;;31.07;16.47;;;;;;;0.06;67.56;98718.49;2115437;84;21501;-81
2022/04/04 05:05:52;;;;;;;26.00;15.97;;;;;;;0.22;66.95;98716.29;2112480;84;21465;-78
2022/04/04 05:08:55;;;;;;;33.60;18.17;;;;;;;0.38;66.31;98712.80;2107672;83;21014;-79
2022/04/04 05:11:55;;;;;;;34.40;17.23;;;;;;;0.47;66.29;98711.56;2118682;84;21086;-79
2022/04/04 05:14:56;;;;;;;34.33;17.33;;;;;;;0.49;66.18;98718.94;2107068;84;21042;-81
2022/04/04 05:17:56;;;;;;;31.40;16.77;;;;;;;0.51;66.15;98717.73;2107144;84;21029;-80
2022/04/04 05:20:58;;;;;;;27.03;16.33;;;;;;;0.56;66.33;98727.42;2112529;84;21045;-81
2022/04/04 05:23:58;;;;;;;45.80;17.20;;;;;;;0.62;66.06;98720.02;2108809;84;21631;-82
2022/04/04 05:26:59;;;;;;;32.63;16.60;;;;;;;0.68;66.05;98715.58;2114202;84;21006;-80
2022/04/04 05:30:00;;;;;;;29.23;16.97;;;;;;;0.77;65.81;98718.99;2108784;84;20998;-81
2022/04/04 05:33:01;;;;;;;30.97;16.80;;;;;;;0.79;65.72;98714.80;2118958;83;21033;-82
2022/04/04 05:36:05;;;;;;;27.27;16.60;;;;;;;0.87;65.96;98722.10;2116045;84;21438;-81
2022/04/04 05:39:05;;;;;;;30.23;15.67;;;;;;;0.93;65.81;98724.08;2109976;84;21386;-81
2022/04/04 05:42:05;;;;;;;26.27;15.57;;;;;;;0.98;65.67;98720.45;2115182;84;21098;-80
2022/04/04 05:45:07;;;;;;;27.00;14.97;;;;;;;1.08;65.73;98731.64;2116862;84;21971;-81
2022/04/04 05:51:10;;;;;;;25.47;15.07;;;;;;;1.21;65.51;98723.28;2097492;84;20951;-81
2022/04/04 05:54:12;;;;;;;26.00;15.03;;;;;;;1.23;65.33;98727.20;2117327;84;21556;-82
2022/04/04 05:57:12;;;;;;;23.43;14.67;;;;;;;1.26;65.44;98724.38;2119331;84;21098;-82
2022/04/04 06:03:21;;;;;;;29.67;17.60;;;;;;;1.33;65.37;98724.66;2103550;84;21432;-82
2022/04/04 06:06:22;;;;;;;25.93;16.03;;;;;;;1.34;65.29;98725.13;2109899;84;21018;-82
2022/04/04 06:09:23;;;;;;;23.20;15.13;;;;;;;1.38;65.42;98728.31;2116131;84;21148;-82
2022/04/04 06:12:23;;;;;;;25.60;15.80;;;;;;;1.45;65.51;98727.79;2116171;84;21014;-80
2022/04/04 06:15:24;;;;;;;32.47;15.53;;;;;;;1.50;65.42;98727.19;2116082;84;21010;-83
2022/04/04 06:18:24;;;;;;;22.10;14.77;;;;;;;1.54;65.49;98721.37;2117801;83;20986;-82
2022/04/04 06:21:25;;;;;;;26.87;15.00;;;;;;;1.52;65.17;98716.97;2112950;83;20982;-83
2022/04/04 06:24:26;;;;;;;23.10;14.90;;;;;;;1.52;65.63;98720.41;2117298;84;20981;-81
2022/04/04 06:27:26;;;;;;;23.37;15.37;;;;;;;1.56;65.71;98715.00;2112410;83;20989;-80
2022/04/04 06:30:29;;;;;;;20.67;14.43;;;;;;;1.60;65.78;98713.04;2119903;84;20998;-84
2022/04/04 06:33:30;;;;;;;25.67;15.63;;;;;;;1.67;65.64;98712.91;2116746;84;21078;-83
2022/04/04 06:36:31;;;;;;;21.40;14.90;;;;;;;1.76;65.42;98712.94;2109741;84;21018;-83
2022/04/04 06:39:31;;;;;;;21.97;15.03;;;;;;;1.90;65.09;98707.98;2108417;83;21086;-84
2022/04/04 06:42:32;;;;;;;22.27;14.77;;;;;;;2.02;64.81;98710.21;2114679;84;20999;-84
2022/04/04 06:45:32;;;;;;;21.60;14.80;;;;;;;2.17;64.70;98711.27;2102128;84;20994;-83
2022/04/04 06:48:34;;;;;;;20.97;15.23;;;;;;;2.21;63.90;98715.73;2102136;84;21030;-80
2022/04/04 06:51:34;;;;;;;26.90;13.13;;;;;;;2.34;64.56;98719.70;2097282;84;20990;-81
2022/04/04 06:54:35;;;;;;;23.80;14.90;;;;;;;2.53;63.27;98722.23;2096184;84;20998;-83
2022/04/04 06:57:35;;;;;;;24.53;15.50;;;;;;;2.47;63.62;98720.28;2088604;85;21018;-84
2022/04/04 07:00:36;;;;;;;21.57;15.47;;;;;;;2.53;64.15;98724.41;2088313;85;21025;-81
2022/04/04 07:03:37;;;;;;;21.30;14.70;;;;;;;2.61;64.21;98712.27;2089049;85;20982;-82
2022/04/04 07:06:37;;;;;;;28.30;14.87;;;;;;;2.73;64.56;98716.64;2088735;84;21023;-82
2022/04/04 07:09:38;;;;;;;22.43;14.57;;;;;;;2.76;64.87;98716.35;2115530;84;21042;-83
2022/04/04 07:12:38;;;;;;;25.57;14.97;;;;;;;2.75;64.60;98718.45;2107638;84;20998;-83
2022/04/04 07:15:41;;;;;;;23.17;14.70;;;;;;;2.69;64.80;98717.33;2095766;84;21343;-81
2022/04/04 07:18:41;;;;;;;31.27;19.07;;;;;;;2.64;64.96;98720.13;2105315;84;21007;-81
2022/04/04 07:21:42;;;;;;;23.97;15.70;;;;;;;2.73;65.23;98708.91;2109114;84;21402;-80
2022/04/04 07:24:42;;;;;;;21.70;14.63;;;;;;;2.76;65.62;98711.20;2116690;83;21010;-81
2022/04/04 07:27:44;;;;;;;22.03;15.40;;;;;;;2.83;65.83;98709.74;2116823;84;21033;-82
2022/04/04 07:30:45;;;;;;;18.80;14.73;;;;;;;2.92;65.79;98712.69;2107087;84;20990;-82
2022/04/04 07:33:45;;;;;;;27.10;14.90;;;;;;;3.12;65.38;98715.63;2096165;84;21291;-80
2022/04/04 07:36:46;;;;;;;26.43;17.43;;;;;;;3.07;65.55;98712.00;2088441;85;21018;-82
2022/04/04 07:39:46;;;;;;;24.97;16.13;;;;;;;2.92;66.12;98713.09;2087650;84;21104;-83
2022/04/04 07:42:47;;;;;;;17.60;14.27;;;;;;;2.71;67.69;98715.69;2090434;84;21323;-81
2022/04/04 07:45:47;;;;;;;21.80;16.20;;;;;;;2.58;67.45;98712.11;2096540;84;21279;-79
2022/04/04 07:48:48;;;;;;;25.00;17.20;;;;;;;2.46;67.49;98720.22;2096381;84;21025;-81
2022/04/04 07:51:48;;;;;;;30.53;20.30;;;;;;;2.43;67.50;98720.09;2102582;83;21030;-82
2022/04/04 07:54:51;;;;;;;23.93;18.13;;;;;;;2.58;67.67;98719.84;2115735;84;21081;-81
2022/04/04 07:57:51;;;;;;;21.40;15.70;;;;;;;2.75;67.61;98718.45;2109194;83;21401;-83
2022/04/04 08:00:52;;;;;;;23.50;15.90;;;;;;;2.90;67.91;98718.19;2117518;83;21518;-83
2022/04/04 08:03:53;;;;;;;23.57;17.70;;;;;;;3.11;67.59;98717.74;2114535;84;20951;-83
2022/04/04 08:06:53;;;;;;;29.30;18.63;;;;;;;3.38;67.47;98715.75;2109697;83;21006;-81
2022/04/04 08:09:54;;;;;;;28.07;20.20;;;;;;;3.48;66.72;98713.61;2115720;84;21073;-83
2022/04/04 08:12:55;;;;;;;26.00;19.00;;;;;;;3.54;66.93;98711.66;2115279;83;20978;-77
2022/04/04 08:15:56;;;;;;;27.03;19.17;;;;;;;3.62;67.02;98712.83;2107140;83;21053;-83
2022/04/04 08:18:57;;;;;;;29.67;21.83;;;;;;;3.67;66.83;98719.04;2108445;83;21327;-79
2022/04/04 08:21:57;;;;;;;25.27;20.00;;;;;;;3.56;66.69;98716.88;2108238;83;21460;-82
2022/04/04 08:24:59;;;;;;;33.40;24.10;;;;;;;3.56;66.49;98710.44;2117119;84;21445;-81
2022/04/04 08:27:59;;;;;;;30.57;23.30;;;;;;;3.73;66.74;98706.36;2111657;84;20962;-83
2022/04/04 08:30:59;;;;;;;28.33;21.73;;;;;;;4.09;66.24;98700.33;2123262;84;21235;-82
2022/04/04 08:34:00;;;;;;;24.80;21.33;;;;;;;4.35;65.15;98702.95;2118227;84;21013;-82
2022/04/04 08:37:01;;;;;;;28.40;21.87;;;;;;;4.65;64.85;98696.64;2109338;84;21002;-82
2022/04/04 08:40:02;;;;;;;26.97;22.00;;;;;;;4.82;64.44;98695.47;2109088;84;21089;-84
2022/04/04 08:43:03;;;;;;;42.33;25.47;;;;;;;4.98;63.56;98696.83;2107472;84;21062;-83
2022/04/04 08:46:05;;;;;;;28.77;21.03;;;;;;;5.19;63.75;98694.03;2096220;83;20966;-82
2022/04/04 08:49:06;;;;;;;25.90;21.27;;;;;;;5.43;62.62;98687.03;2095272;83;21003;-83
2022/04/04 08:52:07;;;;;;;30.30;21.17;;;;;;;5.69;61.90;98691.25;2099640;83;21061;-83
2022/04/04 08:55:08;;;;;;;27.23;20.60;;;;;;;5.85;61.69;98685.20;2099242;84;20974;-82
2022/04/04 08:58:10;;;;;;;25.10;19.03;;;;;;;5.91;59.71;98684.11;2083178;84;21129;-82
2022/04/04 09:01:11;;;;;;;28.97;21.10;;;;;;;5.91;59.71;98684.11;2099440;83;21001;-81
2022/04/04 09:07:15;;;;;;;25.33;20.07;;;;;;;5.47;60.69;98674.64;2086908;85;20966;-80
2022/04/04 09:10:18;;;;;;;27.30;21.13;;;;;;;5.43;61.17;98671.08;2097592;84;21073;-82
2022/04/04 09:13:18;;;;;;;44.93;21.60;;;;;;;5.36;61.14;98675.62;2095866;83;21034;-81
2022/04/04 09:16:18;;;;;;;26.57;20.43;;;;;;;5.53;60.75;98661.88;2098391;84;21500;-82
2022/04/04 09:19:19;;;;;;;24.60;20.40;;;;;;;5.71;60.75;98662.39;2095510;84;21002;-83
2022/04/04 09:22:19;;;;;;;27.10;19.67;;;;;;;5.81;59.76;98651.87;2098428;83;20991;-82
2022/04/04 09:25:24;;;;;;;25.90;17.90;;;;;;;5.89;59.83;98645.21;2096326;84;20974;-82
2022/04/04 09:31:27;;;;;;;24.83;19.47;;;;;;;5.86;59.57;98637.75;2087607;85;20136;-83
2022/04/04 09:34:27;;;;;;;27.40;19.07;;;;;;;5.90;59.80;98624.07;2096525;84;21010;-82
2022/04/04 09:37:28;;;;;;;26.33;18.80;;;;;;;6.16;59.37;98624.37;2098903;83;21073;-82
2022/04/04 09:40:29;;;;;;;22.13;17.57;;;;;;;6.41;59.22;98609.42;2095113;84;21049;-81
2022/04/04 09:43:30;;;;;;;25.90;19.27;;;;;;;6.76;58.89;98611.13;2100225;83;21135;-83
2022/04/04 09:46:30;;;;;;;24.97;17.93;;;;;;;7.13;57.41;98602.91;2117093;84;21011;-83
2022/04/04 09:49:31;;;;;;;19.07;15.97;;;;;;;7.24;57.35;98602.28;2117566;84;21021;-83
2022/04/04 09:55:34;;;;;;;20.90;16.10;;;;;;;7.32;56.50;98594.23;2082736;85;21059;-82
2022/04/04 09:58:38;;;;;;;20.23;15.23;;;;;;;7.30;56.09;98589.86;2110400;84;20982;-83
2022/04/04 10:01:37;;;;;;;23.97;16.00;;;;;;;7.30;56.17;98591.16;2116406;84;21063;-81
2022/04/04 10:04:38;;;;;;;18.37;14.27;;;;;;;7.39;56.46;98582.25;2113508;84;21636;-82
2022/04/04 10:07:38;;;;;;;27.90;19.90;;;;;;;7.48;55.30;98577.23;2089187;84;21367;-82
2022/04/04 10:10:39;;;;;;;18.50;14.47;;;;;;;7.54;55.27;98568.69;2108837;84;21077;-83
2022/04/04 10:13:39;;;;;;;23.40;14.17;;;;;;;7.49;54.65;98565.12;2117397;84;20963;-85
2022/04/04 10:16:40;;;;;;;21.10;15.27;;;;;;;7.26;54.48;98563.38;2117671;84;21077;-81
2022/04/04 10:19:40;;;;;;;21.17;14.37;;;;;;;7.21;54.87;98563.28;2116914;84;21390;-82
2022/04/04 10:22:40;;;;;;;17.57;14.07;;;;;;;7.28;54.87;98560.39;2106839;84;21026;-81
2022/04/04 10:25:41;;;;;;;18.60;14.67;;;;;;;7.29;53.82;98551.76;2117525;83;21022;-83
2022/04/04 10:28:44;;;;;;;27.40;15.70;;;;;;;7.28;55.29;98547.41;2106324;84;21001;-82
2022/04/04 10:31:44;;;;;;;18.77;14.43;;;;;;;7.41;54.77;98537.72;2089089;84;21089;-82
2022/04/04 10:34:44;;;;;;;19.70;14.33;;;;;;;7.43;53.40;98542.52;2088601;85;21003;-83
2022/04/04 10:37:45;;;;;;;16.17;12.17;;;;;;;7.45;53.97;98534.33;2088722;85;21430;-84
2022/04/04 10:40:45;;;;;;;17.47;13.87;;;;;;;7.45;53.18;98530.86;2100085;84;21093;-83
2022/04/04 10:43:46;;;;;;;16.07;12.83;;;;;;;7.54;53.56;98528.44;2107429;84;21038;-81
2022/04/04 10:46:47;;;;;;;18.03;13.10;;;;;;;7.65;52.56;98508.72;2115255;84;21002;-81
2022/04/04 10:49:47;;;;;;;43.60;14.47;;;;;;;7.66;52.09;98507.45;2107946;84;21021;-83
2022/04/04 10:52:48;;;;;;;24.23;12.37;;;;;;;7.64;52.89;98506.55;2115452;84;21417;-81
2022/04/04 10:55:52;;;;;;;21.30;12.03;;;;;;;7.72;51.93;98505.39;2108518;84;21441;-82
2022/04/04 10:58:51;;;;;;;76.70;18.37;;;;;;;7.76;51.61;98498.52;2110045;84;21082;-82
2022/04/04 11:01:51;;;;;;;17.87;12.23;;;;;;;7.84;51.73;98497.84;2120994;84;21366;-81
2022/04/04 11:08:10;;;;;;;20.43;11.47;;;;;;;7.86;51.20;98492.66;2108472;84;21153;-81
2022/04/04 11:11:13;;;;;;;15.93;11.03;;;;;;;7.99;49.73;98481.20;2112091;84;21099;-81
2022/04/04 11:14:14;;;;;;;49.80;12.90;;;;;;;8.03;49.61;98486.02;2123212;84;20976;-80
2022/04/04 11:17:19;;;;;;;16.90;11.30;;;;;;;8.29;49.40;98476.90;2112500;84;21033;-80
2022/04/04 11:20:31;;;;;;;15.95;10.13;;;;;;;8.62;48.68;98470.45;2114279;84;21023;-80
2022/04/04 11:23:25;;;;;;;16.03;10.80;;;;;;;9.18;47.64;98464.69;2115416;84;21094;-80
2022/04/04 11:26:25;;;;;;;18.00;10.83;;;;;;;9.69;46.65;98463.50;2109105;84;21406;-80
2022/04/04 11:29:26;;;;;;;22.80;11.63;;;;;;;9.77;47.30;98448.80;2116263;84;21408;-80
2022/04/04 11:32:28;;;;;;;15.23;10.90;;;;;;;9.65;47.02;98447.39;2123466;84;21622;-82
2022/04/04 11:35:30;;;;;;;16.40;9.57;;;;;;;9.65;46.66;98439.58;2123096;84;21031;-81
2022/04/04 11:38:32;;;;;;;25.43;10.37;;;;;;;9.63;45.57;98421.75;2115937;84;21077;-80
2022/04/04 11:41:36;;;;;;;14.80;10.15;;;;;;;9.57;45.51;98424.30;2110661;84;21081;-82
2022/04/04 11:44:37;;;;;;;14.73;9.93;;;;;;;9.74;45.52;98429.23;2117995;84;21133;-80
2022/04/04 11:47:41;;;;;;;16.30;9.87;;;;;;;9.56;43.47;98418.64;2117523;84;21136;-82
2022/04/04 11:50:39;;;;;;;15.97;9.00;;;;;;;9.56;44.87;98409.09;2116998;84;21336;-81
2022/04/04 11:53:40;;;;;;;10.97;9.63;;;;;;;9.42;44.56;98413.27;2117063;84;21009;-81
2022/04/04 11:56:40;;;;;;;11.40;8.20;;;;;;;9.24;44.78;98410.48;2118059;84;21053;-79
2022/04/04 11:59:42;;;;;;;14.43;8.73;;;;;;;9.15;44.67;98401.28;2117083;84;21018;-82
2022/04/04 12:02:43;;;;;;;9.73;8.23;;;;;;;9.16;45.53;98390.88;2117562;84;20962;-81
2022/04/04 12:05:43;;;;;;;17.60;8.30;;;;;;;9.08;44.92;98391.66;2115084;84;21009;-80
2022/04/04 12:08:44;;;;;;;17.23;9.07;;;;;;;9.08;46.01;98387.75;2116765;84;21057;-80
2022/04/04 12:11:45;;;;;;;8.73;7.83;;;;;;;9.25;45.54;98377.08;2116334;84;21086;-81
2022/04/04 12:14:46;;;;;;;21.17;7.97;;;;;;;9.21;44.89;98367.48;2116373;84;20990;-81
2022/04/04 12:17:46;;;;;;;10.70;7.87;;;;;;;9.04;44.15;98371.66;2115707;83;21018;-80
2022/04/04 12:20:47;;;;;;;14.17;11.27;;;;;;;8.93;45.22;98360.70;2117250;84;20966;-81
2022/04/04 12:27:06;;;;;;;8.57;7.17;;;;;;;8.71;44.96;98353.52;2116414;84;21069;-82
2022/04/04 12:30:06;;;;;;;8.90;6.90;;;;;;;8.54;44.66;98358.92;2116076;84;21005;-82
2022/04/04 12:33:07;;;;;;;8.73;6.37;;;;;;;8.44;45.72;98354.46;2116729;84;21006;-82
2022/04/04 12:36:08;;;;;;;9.20;5.80;;;;;;;8.43;45.16;98348.39;2117191;84;21037;-81
2022/04/04 12:39:09;;;;;;;6.80;5.93;;;;;;;8.46;44.22;98338.45;2116662;84;20982;-82
2022/04/04 12:42:09;;;;;;;9.17;5.93;;;;;;;8.43;44.83;98333.21;2117058;84;20984;-81
2022/04/04 12:45:13;;;;;;;7.13;5.80;;;;;;;8.48;45.00;98334.14;2116011;84;21010;-81
2022/04/04 12:48:13;;;;;;;6.80;6.10;;;;;;;8.59;44.36;98328.20;2115685;84;21105;-82
2022/04/04 12:51:14;;;;;;;9.50;7.03;;;;;;;8.69;44.88;98323.14;2108552;84;21034;-83
2022/04/04 12:54:14;;;;;;;8.37;5.20;;;;;;;8.88;44.79;98317.27;2116769;84;21287;-81
2022/04/04 12:57:15;;;;;;;7.00;5.30;;;;;;;9.03;44.23;98310.91;2107697;83;21026;-81
2022/04/04 13:00:15;;;;;;;6.33;5.17;;;;;;;9.34;43.51;98301.63;2108219;84;20994;-83
2022/04/04 13:03:16;;;;;;;31.67;6.30;;;;;;;9.49;43.16;98303.48;2110072;84;21440;-82
2022/04/04 13:06:16;;;;;;;11.67;5.80;;;;;;;9.73;40.27;98284.56;2108464;83;21022;-83
2022/04/04 13:09:17;;;;;;;9.47;6.13;;;;;;;9.88;40.17;98284.66;2117975;84;20998;-82
2022/04/04 13:12:17;;;;;;;9.00;6.50;;;;;;;9.95;39.85;98281.22;2118390;84;21291;-81
2022/04/04 13:15:18;;;;;;;8.27;6.47;;;;;;;9.54;40.76;98273.16;2107535;84;20975;-81
2022/04/04 13:18:18;;;;;;;9.17;6.03;;;;;;;9.12;41.27;98270.63;2115781;84;21037;-82
2022/04/04 13:21:19;;;;;;;7.37;5.63;;;;;;;9.25;42.26;98263.36;2107634;84;20988;-82
2022/04/04 13:24:19;;;;;;;21.63;10.93;;;;;;;9.37;41.63;98259.10;2116915;84;20959;-81
2022/04/04 13:27:20;;;;;;;13.60;7.37;;;;;;;9.19;40.58;98252.90;2115010;84;20970;-81
2022/04/04 13:30:20;;;;;;;8.40;5.77;;;;;;;9.11;40.93;98244.16;2115210;83;21051;-81
2022/04/04 13:33:21;;;;;;;9.03;6.03;;;;;;;8.97;41.29;98246.20;2114494;84;21433;-81
2022/04/04 13:36:21;;;;;;;9.87;5.07;;;;;;;8.94;42.39;98234.91;2110574;84;21037;-80
2022/04/04 13:39:22;;;;;;;6.77;5.43;;;;;;;9.06;41.53;98229.36;2110266;84;20978;-82
2022/04/04 13:42:22;;;;;;;18.47;5.93;;;;;;;8.93;41.26;98217.55;2121727;84;21010;-82
2022/04/04 13:45:23;;;;;;;23.23;6.23;;;;;;;8.93;40.87;98212.34;2110187;84;21035;-81
2022/04/04 13:48:24;;;;;;;9.13;5.57;;;;;;;8.87;40.54;98213.59;2118300;83;20998;-81
2022/04/04 13:51:25;;;;;;;8.50;6.17;;;;;;;9.06;41.52;98208.09;2109168;84;20971;-81
2022/04/04 13:54:25;;;;;;;24.87;6.43;;;;;;;9.06;40.65;98203.32;2090007;84;21490;-82
2022/04/04 13:57:26;;;;;;;10.77;6.00;;;;;;;9.10;41.27;98212.47;2116992;84;21022;-82
2022/04/04 14:00:26;;;;;;;19.00;6.63;;;;;;;9.03;40.96;98200.70;2108250;83;21446;-81
2022/04/04 14:03:27;;;;;;;10.30;6.70;;;;;;;8.89;41.29;98180.64;2108306;84;21490;-80
2022/04/04 14:06:27;;;;;;;11.97;7.17;;;;;;;8.80;42.06;98170.59;2117534;84;21047;-77
2022/04/04 14:09:28;;;;;;;13.70;5.80;;;;;;;8.78;42.53;98177.51;2117546;84;20998;-78
2022/04/04 14:12:28;;;;;;;7.67;5.90;;;;;;;8.76;40.93;98167.09;2108961;84;21061;-80
2022/04/04 14:15:29;;;;;;;10.57;5.90;;;;;;;8.75;41.88;98157.54;2119071;84;20966;-81
2022/04/04 14:18:30;;;;;;;9.27;6.23;;;;;;;8.70;41.43;98147.52;2109947;84;21072;-82
2022/04/04 14:21:31;;;;;;;11.77;6.27;;;;;;;8.48;42.50;98150.77;2118680;84;21013;-83
2022/04/04 14:24:31;;;;;;;11.63;6.53;;;;;;;8.55;42.56;98144.77;2108993;84;21468;-82
2022/04/04 14:27:32;;;;;;;9.30;6.13;;;;;;;8.53;41.63;98140.84;2109575;84;20986;-81
2022/04/04 14:30:33;;;;;;;13.17;7.97;;;;;;;8.39;43.00;98133.34;2117709;84;20998;-82